sensor_id;sensor_type;location;lat;lon;timestamp;temperature;humidity
27940;DHT22;15275;51.716;14.324;2023-04-30T00:00:24;14.60;72.00
27940;DHT22;15275;51.716;14.324;2023-04-30T00:02:50;14.50;72.00
27940;DHT22;15275;51.716;14.324;2023-04-30T00:05:16;14.50;71.90
27940;DHT22;15275;51.716;14.324;2023-04-30T00:07:42;14.50;71.80
27940;DHT22;15275;51.716;14.324;2023-04-30T00:10:09;14.50;71.70
27940;DHT22;15275;51.716;14.324;2023-04-30T00:12:35;14.50;71.70
27940;DHT22;15275;51.716;14.324;2023-04-30T00:15:02;14.40;71.60
27940;DHT22;15275;51.716;14.324;2023-04-30T00:17:28;14.40;71.50
27940;DHT22;15275;51.716;14.324;2023-04-30T00:19:54;14.30;71.30
27940;DHT22;15275;51.716;14.324;2023-04-30T00:22:20;14.30;71.30
27940;DHT22;15275;51.716;14.324;2023-04-30T00:24:46;14.20;71.20
27940;DHT22;15275;51.716;14.324;2023-04-30T00:27:12;14.20;71.30
27940;DHT22;15275;51.716;14.324;2023-04-30T00:29:37;14.10;71.20
27940;DHT22;15275;51.716;14.324;2023-04-30T00:32:03;14.10;71.20
27940;DHT22;15275;51.716;14.324;2023-04-30T00:34:30;14.00;71.20
27940;DHT22;15275;51.716;14.324;2023-04-30T00:36:56;13.90;71.20
27940;DHT22;15275;51.716;14.324;2023-04-30T00:39:22;13.90;71.10
27940;DHT22;15275;51.716;14.324;2023-04-30T00:41:48;13.80;71.20
27940;DHT22;15275;51.716;14.324;2023-04-30T00:44:13;13.70;71.20
27940;DHT22;15275;51.716;14.324;2023-04-30T00:46:39;13.60;71.30
27940;DHT22;15275;51.716;14.324;2023-04-30T00:49:05;13.60;71.20
27940;DHT22;15275;51.716;14.324;2023-04-30T00:51:32;13.50;71.40
27940;DHT22;15275;51.716;14.324;2023-04-30T00:54:02;13.40;71.50
27940;DHT22;15275;51.716;14.324;2023-04-30T00:56:29;13.40;71.50
27940;DHT22;15275;51.716;14.324;2023-04-30T00:58:56;13.30;71.60
27940;DHT22;15275;51.716;14.324;2023-04-30T01:01:26;13.20;71.60
27940;DHT22;15275;51.716;14.324;2023-04-30T01:03:56;13.20;71.70
27940;DHT22;15275;51.716;14.324;2023-04-30T01:06:22;13.10;71.70
27940;DHT22;15275;51.716;14.324;2023-04-30T01:08:49;13.10;71.70
27940;DHT22;15275;51.716;14.324;2023-04-30T01:19:56;12.80;72.00
27940;DHT22;15275;51.716;14.324;2023-04-30T01:30:08;12.50;72.40
27940;DHT22;15275;51.716;14.324;2023-04-30T01:32:35;12.50;72.30
27940;DHT22;15275;51.716;14.324;2023-04-30T01:35:00;12.40;72.30
27940;DHT22;15275;51.716;14.324;2023-04-30T01:40:23;12.30;72.50
27940;DHT22;15275;51.716;14.324;2023-04-30T01:43:04;12.30;72.70
27940;DHT22;15275;51.716;14.324;2023-04-30T01:48:32;12.10;72.60
27940;DHT22;15275;51.716;14.324;2023-04-30T01:51:15;12.10;72.70
27940;DHT22;15275;51.716;14.324;2023-04-30T01:53:45;12.10;72.60
27940;DHT22;15275;51.716;14.324;2023-04-30T01:56:22;12.00;72.50
27940;DHT22;15275;51.716;14.324;2023-04-30T01:58:53;11.90;72.60
27940;DHT22;15275;51.716;14.324;2023-04-30T02:01:32;11.90;72.40
27940;DHT22;15275;51.716;14.324;2023-04-30T02:03:58;11.80;72.50
27940;DHT22;15275;51.716;14.324;2023-04-30T02:06:25;11.70;72.40
27940;DHT22;15275;51.716;14.324;2023-04-30T02:08:55;11.70;72.40
27940;DHT22;15275;51.716;14.324;2023-04-30T02:11:23;11.60;72.40
27940;DHT22;15275;51.716;14.324;2023-04-30T02:13:50;11.60;72.40
27940;DHT22;15275;51.716;14.324;2023-04-30T02:16:17;11.50;72.50
27940;DHT22;15275;51.716;14.324;2023-04-30T02:18:43;11.40;72.60
27940;DHT22;15275;51.716;14.324;2023-04-30T02:21:09;11.40;72.70
27940;DHT22;15275;51.716;14.324;2023-04-30T02:23:35;11.30;72.80
27940;DHT22;15275;51.716;14.324;2023-04-30T02:26:00;11.20;72.70
27940;DHT22;15275;51.716;14.324;2023-04-30T02:28:27;11.20;72.60
27940;DHT22;15275;51.716;14.324;2023-04-30T02:30:53;11.10;72.50
27940;DHT22;15275;51.716;14.324;2023-04-30T02:33:19;11.10;72.50
27940;DHT22;15275;51.716;14.324;2023-04-30T02:35:45;11.10;72.40
27940;DHT22;15275;51.716;14.324;2023-04-30T02:38:11;11.00;72.40
27940;DHT22;15275;51.716;14.324;2023-04-30T02:40:37;11.00;72.30
27940;DHT22;15275;51.716;14.324;2023-04-30T02:43:02;10.90;72.30
27940;DHT22;15275;51.716;14.324;2023-04-30T02:45:30;10.90;72.20
27940;DHT22;15275;51.716;14.324;2023-04-30T02:47:56;10.90;72.20
27940;DHT22;15275;51.716;14.324;2023-04-30T02:50:22;10.80;72.20
27940;DHT22;15275;51.716;14.324;2023-04-30T02:52:48;10.80;72.20
27940;DHT22;15275;51.716;14.324;2023-04-30T02:55:13;10.80;72.10
27940;DHT22;15275;51.716;14.324;2023-04-30T02:57:39;10.80;72.10
27940;DHT22;15275;51.716;14.324;2023-04-30T03:00:06;10.70;72.00
27940;DHT22;15275;51.716;14.324;2023-04-30T03:02:32;10.70;72.00
27940;DHT22;15275;51.716;14.324;2023-04-30T03:04:58;10.60;72.00
27940;DHT22;15275;51.716;14.324;2023-04-30T03:07:24;10.60;72.00
27940;DHT22;15275;51.716;14.324;2023-04-30T03:09:49;10.50;72.00
27940;DHT22;15275;51.716;14.324;2023-04-30T03:12:15;10.50;72.00
27940;DHT22;15275;51.716;14.324;2023-04-30T03:14:41;10.40;72.00
27940;DHT22;15275;51.716;14.324;2023-04-30T03:17:07;10.40;71.90
27940;DHT22;15275;51.716;14.324;2023-04-30T03:19:33;10.30;72.00
27940;DHT22;15275;51.716;14.324;2023-04-30T03:21:58;10.20;71.90
27940;DHT22;15275;51.716;14.324;2023-04-30T03:24:24;10.20;72.00
27940;DHT22;15275;51.716;14.324;2023-04-30T03:26:50;10.10;72.20
27940;DHT22;15275;51.716;14.324;2023-04-30T03:29:16;10.10;72.30
27940;DHT22;15275;51.716;14.324;2023-04-30T03:31:42;10.10;72.40
27940;DHT22;15275;51.716;14.324;2023-04-30T03:34:08;10.10;72.40
27940;DHT22;15275;51.716;14.324;2023-04-30T03:36:34;10.00;72.40
27940;DHT22;15275;51.716;14.324;2023-04-30T03:39:00;10.00;72.40
27940;DHT22;15275;51.716;14.324;2023-04-30T03:41:26;10.00;72.50
27940;DHT22;15275;51.716;14.324;2023-04-30T03:43:52;10.00;72.50
27940;DHT22;15275;51.716;14.324;2023-04-30T03:46:19;10.00;72.60
27940;DHT22;15275;51.716;14.324;2023-04-30T03:48:45;9.90;72.70
27940;DHT22;15275;51.716;14.324;2023-04-30T03:51:10;9.90;72.70
27940;DHT22;15275;51.716;14.324;2023-04-30T03:53:36;9.80;72.70
27940;DHT22;15275;51.716;14.324;2023-04-30T03:56:02;9.80;72.80
27940;DHT22;15275;51.716;14.324;2023-04-30T03:58:29;9.80;72.80
27940;DHT22;15275;51.716;14.324;2023-04-30T04:00:55;9.80;72.80
27940;DHT22;15275;51.716;14.324;2023-04-30T04:03:21;9.70;72.90
27940;DHT22;15275;51.716;14.324;2023-04-30T04:05:47;9.70;73.10
27940;DHT22;15275;51.716;14.324;2023-04-30T04:08:13;9.70;73.10
27940;DHT22;15275;51.716;14.324;2023-04-30T04:10:39;9.70;73.20
27940;DHT22;15275;51.716;14.324;2023-04-30T04:13:06;9.60;73.30
27940;DHT22;15275;51.716;14.324;2023-04-30T04:15:32;9.60;73.30
27940;DHT22;15275;51.716;14.324;2023-04-30T04:17:58;9.60;73.40
27940;DHT22;15275;51.716;14.324;2023-04-30T04:20:24;9.60;73.40
27940;DHT22;15275;51.716;14.324;2023-04-30T04:22:50;9.60;73.50
27940;DHT22;15275;51.716;14.324;2023-04-30T04:25:16;9.60;73.50
27940;DHT22;15275;51.716;14.324;2023-04-30T04:27:42;9.60;73.60
27940;DHT22;15275;51.716;14.324;2023-04-30T04:30:09;9.60;73.70
27940;DHT22;15275;51.716;14.324;2023-04-30T04:32:35;9.70;73.90
27940;DHT22;15275;51.716;14.324;2023-04-30T04:35:15;9.70;74.00
27940;DHT22;15275;51.716;14.324;2023-04-30T04:37:43;9.80;74.40
27940;DHT22;15275;51.716;14.324;2023-04-30T04:40:09;9.80;74.50
27940;DHT22;15275;51.716;14.324;2023-04-30T04:42:37;9.90;74.60
27940;DHT22;15275;51.716;14.324;2023-04-30T04:45:05;10.00;74.50
27940;DHT22;15275;51.716;14.324;2023-04-30T04:47:32;10.10;74.50
27940;DHT22;15275;51.716;14.324;2023-04-30T04:49:58;10.20;74.30
27940;DHT22;15275;51.716;14.324;2023-04-30T04:52:25;10.20;74.30
27940;DHT22;15275;51.716;14.324;2023-04-30T04:54:51;10.30;74.20
27940;DHT22;15275;51.716;14.324;2023-04-30T04:57:16;10.40;73.90
27940;DHT22;15275;51.716;14.324;2023-04-30T04:59:42;10.50;73.70
27940;DHT22;15275;51.716;14.324;2023-04-30T05:02:08;10.60;73.40
27940;DHT22;15275;51.716;14.324;2023-04-30T05:04:34;10.60;73.10
27940;DHT22;15275;51.716;14.324;2023-04-30T05:07:00;10.70;73.10
27940;DHT22;15275;51.716;14.324;2023-04-30T05:09:26;10.80;72.90
27940;DHT22;15275;51.716;14.324;2023-04-30T05:11:52;10.90;72.60
27940;DHT22;15275;51.716;14.324;2023-04-30T05:14:17;10.90;72.30
27940;DHT22;15275;51.716;14.324;2023-04-30T05:16:45;11.00;72.30
27940;DHT22;15275;51.716;14.324;2023-04-30T05:19:11;11.10;72.30
27940;DHT22;15275;51.716;14.324;2023-04-30T05:21:37;11.20;72.10
27940;DHT22;15275;51.716;14.324;2023-04-30T05:24:04;11.30;72.10
27940;DHT22;15275;51.716;14.324;2023-04-30T05:26:30;11.50;72.10
27940;DHT22;15275;51.716;14.324;2023-04-30T05:28:56;11.60;72.20
27940;DHT22;15275;51.716;14.324;2023-04-30T05:31:22;11.80;72.10
27940;DHT22;15275;51.716;14.324;2023-04-30T05:33:48;12.10;72.00
27940;DHT22;15275;51.716;14.324;2023-04-30T05:36:14;12.40;71.50
27940;DHT22;15275;51.716;14.324;2023-04-30T05:38:40;12.60;71.00
27940;DHT22;15275;51.716;14.324;2023-04-30T05:41:06;12.80;70.50
27940;DHT22;15275;51.716;14.324;2023-04-30T05:43:32;13.10;69.90
27940;DHT22;15275;51.716;14.324;2023-04-30T05:45:58;13.30;69.30
27940;DHT22;15275;51.716;14.324;2023-04-30T05:48:24;13.50;68.90
27940;DHT22;15275;51.716;14.324;2023-04-30T05:50:50;13.60;68.50
27940;DHT22;15275;51.716;14.324;2023-04-30T05:53:16;13.80;68.10
27940;DHT22;15275;51.716;14.324;2023-04-30T05:55:42;13.90;67.70
27940;DHT22;15275;51.716;14.324;2023-04-30T05:58:08;14.00;67.70
27940;DHT22;15275;51.716;14.324;2023-04-30T06:00:34;14.20;67.30
27940;DHT22;15275;51.716;14.324;2023-04-30T06:03:00;14.40;66.50
27940;DHT22;15275;51.716;14.324;2023-04-30T06:05:26;14.50;66.20
27940;DHT22;15275;51.716;14.324;2023-04-30T06:07:52;14.50;66.00
27940;DHT22;15275;51.716;14.324;2023-04-30T06:10:17;14.50;65.80
27940;DHT22;15275;51.716;14.324;2023-04-30T06:12:43;14.60;65.50
27940;DHT22;15275;51.716;14.324;2023-04-30T06:15:09;14.60;65.40
27940;DHT22;15275;51.716;14.324;2023-04-30T06:17:35;14.50;65.20
27940;DHT22;15275;51.716;14.324;2023-04-30T06:20:01;14.40;64.90
27940;DHT22;15275;51.716;14.324;2023-04-30T06:22:31;14.30;64.70
27940;DHT22;15275;51.716;14.324;2023-04-30T06:24:58;14.30;64.60
27940;DHT22;15275;51.716;14.324;2023-04-30T06:27:24;14.20;64.90
27940;DHT22;15275;51.716;14.324;2023-04-30T06:29:53;14.20;65.30
27940;DHT22;15275;51.716;14.324;2023-04-30T06:32:19;14.20;65.60
27940;DHT22;15275;51.716;14.324;2023-04-30T06:34:45;14.30;65.30
27940;DHT22;15275;51.716;14.324;2023-04-30T06:37:11;14.30;65.00
27940;DHT22;15275;51.716;14.324;2023-04-30T06:39:36;14.30;64.70
27940;DHT22;15275;51.716;14.324;2023-04-30T06:42:02;14.30;64.60
27940;DHT22;15275;51.716;14.324;2023-04-30T06:44:28;14.30;64.30
27940;DHT22;15275;51.716;14.324;2023-04-30T06:46:54;14.20;64.20
27940;DHT22;15275;51.716;14.324;2023-04-30T06:49:20;14.20;64.30
27940;DHT22;15275;51.716;14.324;2023-04-30T06:51:46;14.10;64.40
27940;DHT22;15275;51.716;14.324;2023-04-30T06:54:11;14.10;64.60
27940;DHT22;15275;51.716;14.324;2023-04-30T06:56:38;14.10;64.80
27940;DHT22;15275;51.716;14.324;2023-04-30T06:59:04;14.10;64.80
27940;DHT22;15275;51.716;14.324;2023-04-30T07:01:30;14.10;64.80
27940;DHT22;15275;51.716;14.324;2023-04-30T07:03:56;14.10;64.70
27940;DHT22;15275;51.716;14.324;2023-04-30T07:06:22;14.10;64.60
27940;DHT22;15275;51.716;14.324;2023-04-30T07:08:48;14.10;64.40
27940;DHT22;15275;51.716;14.324;2023-04-30T07:11:14;14.10;64.20
27940;DHT22;15275;51.716;14.324;2023-04-30T07:13:40;14.10;64.20
27940;DHT22;15275;51.716;14.324;2023-04-30T07:16:06;14.10;64.20
27940;DHT22;15275;51.716;14.324;2023-04-30T07:18:34;14.10;64.30
27940;DHT22;15275;51.716;14.324;2023-04-30T07:20:59;14.10;64.30
27940;DHT22;15275;51.716;14.324;2023-04-30T07:23:25;14.10;64.30
27940;DHT22;15275;51.716;14.324;2023-04-30T07:25:51;14.10;64.60
27940;DHT22;15275;51.716;14.324;2023-04-30T07:28:17;14.10;64.60
27940;DHT22;15275;51.716;14.324;2023-04-30T07:30:43;14.20;64.30
27940;DHT22;15275;51.716;14.324;2023-04-30T07:33:09;14.20;64.10
27940;DHT22;15275;51.716;14.324;2023-04-30T07:35:35;14.20;63.90
27940;DHT22;15275;51.716;14.324;2023-04-30T07:38:01;14.30;64.30
27940;DHT22;15275;51.716;14.324;2023-04-30T07:40:27;14.30;64.00
27940;DHT22;15275;51.716;14.324;2023-04-30T07:42:52;14.40;63.70
27940;DHT22;15275;51.716;14.324;2023-04-30T07:45:18;14.40;63.80
27940;DHT22;15275;51.716;14.324;2023-04-30T07:47:44;14.50;63.50
27940;DHT22;15275;51.716;14.324;2023-04-30T07:50:11;14.50;63.80
27940;DHT22;15275;51.716;14.324;2023-04-30T07:52:39;14.50;63.70
27940;DHT22;15275;51.716;14.324;2023-04-30T07:55:06;14.60;63.70
27940;DHT22;15275;51.716;14.324;2023-04-30T07:57:32;14.70;63.50
27940;DHT22;15275;51.716;14.324;2023-04-30T07:59:58;14.70;63.50
27940;DHT22;15275;51.716;14.324;2023-04-30T08:02:23;14.80;63.70
27940;DHT22;15275;51.716;14.324;2023-04-30T08:04:49;14.80;63.60
27940;DHT22;15275;51.716;14.324;2023-04-30T08:07:15;14.90;63.30
27940;DHT22;15275;51.716;14.324;2023-04-30T08:09:41;15.00;62.60
27940;DHT22;15275;51.716;14.324;2023-04-30T08:12:08;15.00;62.20
27940;DHT22;15275;51.716;14.324;2023-04-30T08:14:34;15.10;62.10
27940;DHT22;15275;51.716;14.324;2023-04-30T08:17:00;15.10;62.10
27940;DHT22;15275;51.716;14.324;2023-04-30T08:19:27;15.10;62.10
27940;DHT22;15275;51.716;14.324;2023-04-30T08:21:54;15.10;61.80
27940;DHT22;15275;51.716;14.324;2023-04-30T08:24:20;15.20;61.60
27940;DHT22;15275;51.716;14.324;2023-04-30T08:26:46;15.20;61.60
27940;DHT22;15275;51.716;14.324;2023-04-30T08:29:12;15.20;61.60
27940;DHT22;15275;51.716;14.324;2023-04-30T08:31:38;15.20;61.70
27940;DHT22;15275;51.716;14.324;2023-04-30T08:34:03;15.30;61.40
27940;DHT22;15275;51.716;14.324;2023-04-30T08:36:29;15.30;61.40
27940;DHT22;15275;51.716;14.324;2023-04-30T08:38:55;15.40;61.50
27940;DHT22;15275;51.716;14.324;2023-04-30T08:41:25;15.40;61.50
27940;DHT22;15275;51.716;14.324;2023-04-30T08:43:55;15.50;61.40
27940;DHT22;15275;51.716;14.324;2023-04-30T08:46:26;15.50;60.80
27940;DHT22;15275;51.716;14.324;2023-04-30T08:48:55;15.50;60.30
27940;DHT22;15275;51.716;14.324;2023-04-30T08:51:21;15.50;60.50
27940;DHT22;15275;51.716;14.324;2023-04-30T08:53:49;15.50;60.40
27940;DHT22;15275;51.716;14.324;2023-04-30T08:56:15;15.50;60.10
27940;DHT22;15275;51.716;14.324;2023-04-30T08:58:41;15.60;60.00
27940;DHT22;15275;51.716;14.324;2023-04-30T09:01:09;15.60;59.80
27940;DHT22;15275;51.716;14.324;2023-04-30T09:03:36;15.60;59.60
27940;DHT22;15275;51.716;14.324;2023-04-30T09:06:02;15.60;59.80
27940;DHT22;15275;51.716;14.324;2023-04-30T09:08:49;15.60;59.60
27940;DHT22;15275;51.716;14.324;2023-04-30T09:11:28;15.70;58.50
27940;DHT22;15275;51.716;14.324;2023-04-30T09:14:00;15.70;59.30
27940;DHT22;15275;51.716;14.324;2023-04-30T09:16:28;15.70;59.50
27940;DHT22;15275;51.716;14.324;2023-04-30T09:18:55;15.80;59.70
27940;DHT22;15275;51.716;14.324;2023-04-30T09:21:32;15.80;59.40
27940;DHT22;15275;51.716;14.324;2023-04-30T09:24:01;15.80;58.80
27940;DHT22;15275;51.716;14.324;2023-04-30T09:26:33;15.90;59.20
27940;DHT22;15275;51.716;14.324;2023-04-30T09:29:00;15.90;58.70
27940;DHT22;15275;51.716;14.324;2023-04-30T09:31:32;15.90;58.80
27940;DHT22;15275;51.716;14.324;2023-04-30T09:33:59;15.90;58.60
27940;DHT22;15275;51.716;14.324;2023-04-30T09:36:25;16.00;58.80
27940;DHT22;15275;51.716;14.324;2023-04-30T09:38:52;16.00;58.50
27940;DHT22;15275;51.716;14.324;2023-04-30T09:43:49;16.10;58.10
27940;DHT22;15275;51.716;14.324;2023-04-30T09:46:18;16.10;58.10
27940;DHT22;15275;51.716;14.324;2023-04-30T09:48:44;16.10;57.40
27940;DHT22;15275;51.716;14.324;2023-04-30T09:51:10;16.10;57.80
27940;DHT22;15275;51.716;14.324;2023-04-30T09:53:37;16.10;57.70
27940;DHT22;15275;51.716;14.324;2023-04-30T09:56:06;16.20;57.70
27940;DHT22;15275;51.716;14.324;2023-04-30T09:58:36;16.20;57.40
27940;DHT22;15275;51.716;14.324;2023-04-30T10:01:04;16.20;58.80
27940;DHT22;15275;51.716;14.324;2023-04-30T10:03:34;16.30;58.20
27940;DHT22;15275;51.716;14.324;2023-04-30T10:06:00;16.40;57.80
27940;DHT22;15275;51.716;14.324;2023-04-30T10:08:29;16.40;57.00
27940;DHT22;15275;51.716;14.324;2023-04-30T10:11:06;16.50;56.90
27940;DHT22;15275;51.716;14.324;2023-04-30T10:13:59;16.60;56.60
27940;DHT22;15275;51.716;14.324;2023-04-30T10:19:23;16.70;56.10
27940;DHT22;15275;51.716;14.324;2023-04-30T10:21:50;16.70;55.90
27940;DHT22;15275;51.716;14.324;2023-04-30T10:24:19;16.70;56.10
27940;DHT22;15275;51.716;14.324;2023-04-30T10:26:48;16.70;55.50
27940;DHT22;15275;51.716;14.324;2023-04-30T10:29:15;16.70;55.20
27940;DHT22;15275;51.716;14.324;2023-04-30T10:31:48;16.70;55.90
27940;DHT22;15275;51.716;14.324;2023-04-30T10:34:34;16.70;55.70
27940;DHT22;15275;51.716;14.324;2023-04-30T10:37:23;16.80;55.20
27940;DHT22;15275;51.716;14.324;2023-04-30T10:39:57;16.80;54.10
27940;DHT22;15275;51.716;14.324;2023-04-30T10:42:23;16.90;55.50
27940;DHT22;15275;51.716;14.324;2023-04-30T10:44:49;16.90;55.50
27940;DHT22;15275;51.716;14.324;2023-04-30T10:47:16;16.90;55.30
27940;DHT22;15275;51.716;14.324;2023-04-30T10:49:48;17.00;54.60
27940;DHT22;15275;51.716;14.324;2023-04-30T10:52:25;17.00;54.40
27940;DHT22;15275;51.716;14.324;2023-04-30T10:54:52;17.10;53.80
27940;DHT22;15275;51.716;14.324;2023-04-30T10:57:20;17.10;54.80
27940;DHT22;15275;51.716;14.324;2023-04-30T10:59:53;17.10;54.40
27940;DHT22;15275;51.716;14.324;2023-04-30T11:02:43;17.20;54.00
27940;DHT22;15275;51.716;14.324;2023-04-30T11:08:11;17.30;54.70
27940;DHT22;15275;51.716;14.324;2023-04-30T11:10:37;17.40;53.60
27940;DHT22;15275;51.716;14.324;2023-04-30T11:13:13;17.40;54.30
27940;DHT22;15275;51.716;14.324;2023-04-30T11:15:40;17.50;53.80
27940;DHT22;15275;51.716;14.324;2023-04-30T11:18:07;17.50;53.90
27940;DHT22;15275;51.716;14.324;2023-04-30T11:20:38;17.50;53.80
27940;DHT22;15275;51.716;14.324;2023-04-30T11:23:12;17.60;53.30
27940;DHT22;15275;51.716;14.324;2023-04-30T11:25:44;17.60;53.70
27940;DHT22;15275;51.716;14.324;2023-04-30T11:28:20;17.70;53.30
27940;DHT22;15275;51.716;14.324;2023-04-30T11:30:51;17.70;53.30
27940;DHT22;15275;51.716;14.324;2023-04-30T11:33:18;17.70;53.60
27940;DHT22;15275;51.716;14.324;2023-04-30T11:35:44;17.70;53.30
27940;DHT22;15275;51.716;14.324;2023-04-30T11:38:14;17.70;53.80
27940;DHT22;15275;51.716;14.324;2023-04-30T11:40:41;17.80;53.50
27940;DHT22;15275;51.716;14.324;2023-04-30T11:43:23;17.80;53.50
27940;DHT22;15275;51.716;14.324;2023-04-30T11:46:11;17.90;53.10
27940;DHT22;15275;51.716;14.324;2023-04-30T11:48:45;17.90;52.60
27940;DHT22;15275;51.716;14.324;2023-04-30T11:53:50;18.00;53.20
27940;DHT22;15275;51.716;14.324;2023-04-30T11:56:21;18.10;52.50
27940;DHT22;15275;51.716;14.324;2023-04-30T11:58:50;18.10;52.60
27940;DHT22;15275;51.716;14.324;2023-04-30T12:01:17;18.10;52.80
27940;DHT22;15275;51.716;14.324;2023-04-30T12:03:46;18.10;52.20
27940;DHT22;15275;51.716;14.324;2023-04-30T12:06:26;18.10;52.10
27940;DHT22;15275;51.716;14.324;2023-04-30T12:08:57;18.10;51.80
27940;DHT22;15275;51.716;14.324;2023-04-30T12:11:26;18.10;52.10
27940;DHT22;15275;51.716;14.324;2023-04-30T12:14:00;18.10;52.30
27940;DHT22;15275;51.716;14.324;2023-04-30T12:16:58;18.10;52.00
27940;DHT22;15275;51.716;14.324;2023-04-30T12:19:24;18.10;52.20
27940;DHT22;15275;51.716;14.324;2023-04-30T12:21:52;18.20;52.80
27940;DHT22;15275;51.716;14.324;2023-04-30T12:24:19;18.20;53.00
27940;DHT22;15275;51.716;14.324;2023-04-30T12:26:45;18.30;53.00
27940;DHT22;15275;51.716;14.324;2023-04-30T12:29:15;18.40;52.60
27940;DHT22;15275;51.716;14.324;2023-04-30T12:31:42;18.50;52.10
27940;DHT22;15275;51.716;14.324;2023-04-30T12:34:11;18.50;52.00
27940;DHT22;15275;51.716;14.324;2023-04-30T12:36:39;18.60;51.40
27940;DHT22;15275;51.716;14.324;2023-04-30T12:39:10;18.60;51.10
27940;DHT22;15275;51.716;14.324;2023-04-30T12:41:41;18.60;51.20
27940;DHT22;15275;51.716;14.324;2023-04-30T12:44:22;18.60;50.70
27940;DHT22;15275;51.716;14.324;2023-04-30T12:46:50;18.70;50.30
27940;DHT22;15275;51.716;14.324;2023-04-30T12:49:26;18.70;50.60
27940;DHT22;15275;51.716;14.324;2023-04-30T12:52:04;18.70;50.40
27940;DHT22;15275;51.716;14.324;2023-04-30T12:54:35;18.70;49.90
27940;DHT22;15275;51.716;14.324;2023-04-30T12:57:06;18.70;50.10
27940;DHT22;15275;51.716;14.324;2023-04-30T13:02:22;18.80;48.50
27940;DHT22;15275;51.716;14.324;2023-04-30T13:04:50;18.80;49.90
27940;DHT22;15275;51.716;14.324;2023-04-30T13:07:17;18.80;49.80
27940;DHT22;15275;51.716;14.324;2023-04-30T13:09:43;18.80;49.80
27940;DHT22;15275;51.716;14.324;2023-04-30T13:12:09;18.80;49.50
27940;DHT22;15275;51.716;14.324;2023-04-30T13:14:35;18.90;49.40
27940;DHT22;15275;51.716;14.324;2023-04-30T13:17:01;18.90;48.50
27940;DHT22;15275;51.716;14.324;2023-04-30T13:19:30;18.90;48.40
27940;DHT22;15275;51.716;14.324;2023-04-30T13:21:56;18.90;48.30
27940;DHT22;15275;51.716;14.324;2023-04-30T13:24:23;19.00;48.20
27940;DHT22;15275;51.716;14.324;2023-04-30T13:26:49;19.00;47.80
27940;DHT22;15275;51.716;14.324;2023-04-30T13:29:15;19.00;48.10
27940;DHT22;15275;51.716;14.324;2023-04-30T13:31:41;19.10;47.90
27940;DHT22;15275;51.716;14.324;2023-04-30T13:34:08;19.10;47.70
27940;DHT22;15275;51.716;14.324;2023-04-30T13:36:35;19.10;47.40
27940;DHT22;15275;51.716;14.324;2023-04-30T13:39:00;19.10;46.50
27940;DHT22;15275;51.716;14.324;2023-04-30T13:41:26;19.20;46.00
27940;DHT22;15275;51.716;14.324;2023-04-30T13:43:52;19.20;45.80
27940;DHT22;15275;51.716;14.324;2023-04-30T13:46:18;19.20;45.90
27940;DHT22;15275;51.716;14.324;2023-04-30T13:48:44;19.20;45.90
27940;DHT22;15275;51.716;14.324;2023-04-30T13:51:14;19.20;45.70
27940;DHT22;15275;51.716;14.324;2023-04-30T13:53:40;19.20;45.40
27940;DHT22;15275;51.716;14.324;2023-04-30T13:56:06;19.20;44.90
27940;DHT22;15275;51.716;14.324;2023-04-30T13:58:31;19.20;44.70
27940;DHT22;15275;51.716;14.324;2023-04-30T14:00:57;19.20;44.90
27940;DHT22;15275;51.716;14.324;2023-04-30T14:03:24;19.20;44.80
27940;DHT22;15275;51.716;14.324;2023-04-30T14:05:50;19.30;44.90
27940;DHT22;15275;51.716;14.324;2023-04-30T14:08:16;19.30;44.90
27940;DHT22;15275;51.716;14.324;2023-04-30T14:10:42;19.30;44.60
27940;DHT22;15275;51.716;14.324;2023-04-30T14:13:08;19.40;44.80
27940;DHT22;15275;51.716;14.324;2023-04-30T14:15:34;19.40;44.20
27940;DHT22;15275;51.716;14.324;2023-04-30T14:18:00;19.40;43.30
27940;DHT22;15275;51.716;14.324;2023-04-30T14:20:26;19.50;44.30
27940;DHT22;15275;51.716;14.324;2023-04-30T14:22:52;19.40;44.30
27940;DHT22;15275;51.716;14.324;2023-04-30T14:25:18;19.40;44.30
27940;DHT22;15275;51.716;14.324;2023-04-30T14:27:43;19.50;44.30
27940;DHT22;15275;51.716;14.324;2023-04-30T14:30:10;19.50;44.50
27940;DHT22;15275;51.716;14.324;2023-04-30T14:32:36;19.50;44.40
27940;DHT22;15275;51.716;14.324;2023-04-30T14:35:02;19.50;44.50
27940;DHT22;15275;51.716;14.324;2023-04-30T14:37:29;19.50;44.20
27940;DHT22;15275;51.716;14.324;2023-04-30T14:39:55;19.60;43.80
27940;DHT22;15275;51.716;14.324;2023-04-30T14:42:20;19.60;43.80
27940;DHT22;15275;51.716;14.324;2023-04-30T14:44:46;19.60;43.30
27940;DHT22;15275;51.716;14.324;2023-04-30T14:47:12;19.60;42.90
27940;DHT22;15275;51.716;14.324;2023-04-30T14:49:38;19.60;42.90
27940;DHT22;15275;51.716;14.324;2023-04-30T14:52:05;19.60;42.60
27940;DHT22;15275;51.716;14.324;2023-04-30T14:54:31;19.60;42.90
27940;DHT22;15275;51.716;14.324;2023-04-30T14:56:56;19.60;42.80
27940;DHT22;15275;51.716;14.324;2023-04-30T14:59:22;19.60;42.20
27940;DHT22;15275;51.716;14.324;2023-04-30T15:01:48;19.60;42.10
27940;DHT22;15275;51.716;14.324;2023-04-30T15:04:14;19.60;41.90
27940;DHT22;15275;51.716;14.324;2023-04-30T15:06:40;19.60;41.70
27940;DHT22;15275;51.716;14.324;2023-04-30T15:09:06;19.60;41.70
27940;DHT22;15275;51.716;14.324;2023-04-30T15:11:32;19.60;41.90
27940;DHT22;15275;51.716;14.324;2023-04-30T15:13:58;19.60;41.80
27940;DHT22;15275;51.716;14.324;2023-04-30T15:16:24;19.60;41.10
27940;DHT22;15275;51.716;14.324;2023-04-30T15:18:50;19.60;41.70
27940;DHT22;15275;51.716;14.324;2023-04-30T15:21:16;19.60;41.60
27940;DHT22;15275;51.716;14.324;2023-04-30T15:23:43;19.60;41.60
27940;DHT22;15275;51.716;14.324;2023-04-30T15:26:08;19.70;42.00
27940;DHT22;15275;51.716;14.324;2023-04-30T15:28:34;19.70;42.10
27940;DHT22;15275;51.716;14.324;2023-04-30T15:31:00;19.70;42.00
27940;DHT22;15275;51.716;14.324;2023-04-30T15:33:27;19.80;41.80
27940;DHT22;15275;51.716;14.324;2023-04-30T15:35:55;19.80;41.60
27940;DHT22;15275;51.716;14.324;2023-04-30T15:38:20;19.80;41.30
27940;DHT22;15275;51.716;14.324;2023-04-30T15:40:46;19.80;41.10
27940;DHT22;15275;51.716;14.324;2023-04-30T15:43:12;19.80;41.10
27940;DHT22;15275;51.716;14.324;2023-04-30T15:45:39;19.80;41.30
27940;DHT22;15275;51.716;14.324;2023-04-30T15:48:05;19.80;41.10
27940;DHT22;15275;51.716;14.324;2023-04-30T15:50:31;19.80;41.60
27940;DHT22;15275;51.716;14.324;2023-04-30T15:52:57;19.90;41.60
27940;DHT22;15275;51.716;14.324;2023-04-30T15:55:24;19.90;41.80